createdAt,value
2019-01-10T00:01:02.488Z,0.78
2019-01-10T00:03:31.326Z,0.75
2019-01-10T00:06:00.256Z,0.90
2019-01-10T00:08:29.028Z,0.60
2019-01-10T00:10:57.959Z,0.47
2019-01-10T00:13:26.770Z,0.70
2019-01-10T00:15:55.631Z,0.93
2019-01-10T00:18:24.549Z,0.68
2019-01-10T00:20:53.333Z,0.60
2019-01-10T00:23:22.126Z,0.45
2019-01-10T00:25:50.893Z,0.40
2019-01-10T00:28:19.643Z,0.80
2019-01-10T00:30:51.369Z,0.80
2019-01-10T00:33:20.129Z,0.95
2019-01-10T00:35:48.985Z,0.62
2019-01-10T00:38:17.860Z,0.65
2019-01-10T00:40:46.748Z,0.50
2019-01-10T00:43:15.557Z,0.50
2019-01-10T00:45:44.380Z,0.60
2019-01-10T00:48:13.131Z,0.70
2019-01-10T00:50:41.924Z,0.68
2019-01-10T00:53:10.655Z,0.60
2019-01-10T00:55:39.449Z,0.40
2019-01-10T00:58:08.322Z,0.60
2019-01-10T01:00:37.267Z,0.60
2019-01-10T01:03:06.072Z,0.50
2019-01-10T01:05:34.892Z,0.68
2019-01-10T01:08:03.816Z,0.53
2019-01-10T01:10:32.738Z,0.50
2019-01-10T01:13:01.594Z,0.50
2019-01-10T01:15:30.369Z,0.60
2019-01-10T01:17:59.146Z,0.60
2019-01-10T01:20:27.926Z,0.60
2019-01-10T01:22:56.750Z,0.53
2019-01-10T01:25:25.506Z,0.60
2019-01-10T01:27:54.356Z,0.60
2019-01-10T01:30:24.619Z,0.40
2019-01-10T01:32:53.508Z,0.62
2019-01-10T01:35:22.514Z,0.60
2019-01-10T01:37:51.340Z,0.95
2019-01-10T01:40:20.598Z,0.60
2019-01-10T01:42:49.582Z,0.53
2019-01-10T01:45:19.336Z,0.57
2019-01-10T01:47:48.448Z,0.70
2019-01-10T01:50:19.725Z,0.57
2019-01-10T01:52:48.636Z,0.68
2019-01-10T01:55:17.572Z,0.90
2019-01-10T01:57:46.464Z,0.68
2019-01-10T02:00:17.278Z,0.80
2019-01-10T02:02:46.244Z,1.30
2019-01-10T02:05:15.236Z,1.00
2019-01-10T02:07:44.164Z,0.90
2019-01-10T02:10:18.144Z,0.72
2019-01-10T02:12:47.129Z,0.93
2019-01-10T02:15:16.555Z,0.62
2019-01-10T02:17:49.118Z,0.80
2019-01-10T02:20:16.077Z,0.88
2019-01-10T02:22:45.168Z,0.95
2019-01-10T02:25:14.441Z,0.60
2019-01-10T02:27:43.416Z,0.90
2019-01-10T02:30:17.888Z,0.95
2019-01-10T02:32:46.787Z,0.80
2019-01-10T02:35:16.560Z,0.60
2019-01-10T02:37:45.433Z,0.70
2019-01-10T02:40:14.488Z,1.30
2019-01-10T02:42:43.290Z,1.17
2019-01-10T02:45:12.925Z,1.05
2019-01-10T02:47:44.790Z,0.95
2019-01-10T02:50:16.518Z,0.60
2019-01-10T02:52:45.611Z,0.70
2019-01-10T02:55:14.555Z,0.60
2019-01-10T02:57:43.363Z,0.62
2019-01-10T03:00:15.350Z,1.12
2019-01-10T03:02:44.375Z,0.78
2019-01-10T03:05:13.289Z,0.60
2019-01-10T03:07:42.436Z,0.75
2019-01-10T03:10:12.319Z,1.07
2019-01-10T03:12:41.153Z,1.00
2019-01-10T03:15:10.392Z,1.10
2019-01-10T03:17:39.274Z,0.70
2019-01-10T03:20:11.046Z,0.62
2019-01-10T03:22:39.832Z,0.95
2019-01-10T03:25:09.261Z,0.65
2019-01-10T03:27:38.202Z,0.93
2019-01-10T03:30:08.760Z,0.68
2019-01-10T03:32:37.630Z,0.80
2019-01-10T03:35:07.912Z,0.70
2019-01-10T03:37:36.899Z,0.60
2019-01-10T03:40:09.002Z,0.50
2019-01-10T03:42:37.903Z,0.70
2019-01-10T03:45:08.659Z,0.50
2019-01-10T03:47:37.558Z,0.72
2019-01-10T03:50:06.779Z,0.68
2019-01-10T03:52:35.569Z,0.78
2019-01-10T03:55:04.837Z,0.68
2019-01-10T03:57:33.673Z,0.60
2019-01-10T04:00:03.139Z,0.60
2019-01-10T04:02:32.023Z,0.90
2019-01-10T04:05:00.776Z,0.53
2019-01-10T04:07:29.701Z,1.05
2019-01-10T04:09:58.738Z,0.60
2019-01-10T04:12:27.893Z,1.10
2019-01-10T04:14:57.089Z,0.70
2019-01-10T04:17:25.816Z,0.68
2019-01-10T04:19:55.118Z,0.88
2019-01-10T04:22:23.983Z,0.62
2019-01-10T04:24:55.771Z,0.82
2019-01-10T04:27:24.533Z,0.80
2019-01-10T04:29:53.285Z,0.70
2019-01-10T04:32:22.105Z,0.78
2019-01-10T04:34:50.947Z,0.70
2019-01-10T04:37:19.790Z,1.12
2019-01-10T04:39:48.737Z,0.80
2019-01-10T04:42:17.649Z,0.60
2019-01-10T04:44:48.668Z,0.90
2019-01-10T04:47:17.367Z,0.65
2019-01-10T04:49:46.365Z,0.85
2019-01-10T04:52:15.307Z,0.72
2019-01-10T04:54:44.058Z,1.10
2019-01-10T04:57:12.909Z,1.52
2019-01-10T04:59:41.732Z,1.10
2019-01-10T05:02:18.369Z,0.70
2019-01-10T05:04:41.322Z,1.37
2019-01-10T05:07:10.174Z,1.40
2019-01-10T05:09:39.066Z,0.88
2019-01-10T05:12:07.944Z,1.17
2019-01-10T05:14:37.070Z,0.90
2019-01-10T05:17:05.852Z,0.90
2019-01-10T05:19:34.685Z,1.10
2019-01-10T05:22:03.412Z,2.40
2019-01-10T05:24:32.418Z,1.10
2019-01-10T05:27:01.204Z,0.93
2019-01-10T05:29:30.160Z,1.15
2019-01-10T05:34:32.517Z,1.20
2019-01-10T05:37:13.259Z,0.88
2019-01-10T05:39:54.402Z,1.30
2019-01-10T05:42:35.067Z,1.15
2019-01-10T05:45:16.019Z,0.98
2019-01-10T05:47:56.686Z,1.47
2019-01-10T05:50:37.480Z,1.22
2019-01-10T05:53:18.450Z,0.93
2019-01-10T05:55:59.370Z,1.37
2019-01-10T05:58:39.804Z,1.02
2019-01-10T06:01:20.637Z,1.80
2019-01-10T06:04:01.358Z,1.10
2019-01-10T06:06:42.014Z,1.40
2019-01-10T06:09:22.937Z,1.35
2019-01-10T06:12:03.748Z,1.20
2019-01-10T06:14:44.623Z,1.27
2019-01-10T06:17:25.523Z,1.72
2019-01-10T06:20:06.007Z,1.25
2019-01-10T06:22:46.820Z,1.10
2019-01-10T06:25:27.636Z,1.98
2019-01-10T06:28:08.355Z,1.17
2019-01-10T06:30:49.118Z,1.12
2019-01-10T06:33:30.111Z,1.40
2019-01-10T06:36:10.779Z,1.20
2019-01-10T06:38:51.718Z,1.25
2019-01-10T06:41:32.731Z,1.45
2019-01-10T06:44:13.338Z,1.10
2019-01-10T06:46:54.282Z,1.20
2019-01-10T06:49:34.712Z,0.93
2019-01-10T06:52:15.143Z,1.30
2019-01-10T06:54:56.678Z,1.20
2019-01-10T06:57:38.114Z,1.15
2019-01-10T07:00:19.609Z,1.35
2019-01-10T07:03:03.190Z,1.37
2019-01-10T07:05:45.876Z,1.00
2019-01-10T07:08:27.005Z,1.22
2019-01-10T07:11:08.429Z,1.65
2019-01-10T07:13:50.636Z,1.05
2019-01-10T07:16:38.115Z,1.10
2019-01-10T07:19:14.932Z,1.40
2019-01-10T07:21:56.273Z,1.70
2019-01-10T07:24:36.376Z,1.70
2019-01-10T07:27:17.398Z,0.90
2019-01-10T07:29:59.500Z,1.07
2019-01-10T07:32:40.373Z,1.20
2019-01-10T07:35:21.133Z,0.90
2019-01-10T07:38:02.129Z,1.10
2019-01-10T07:40:42.827Z,0.95
2019-01-10T07:43:23.605Z,1.17
2019-01-10T07:46:04.284Z,1.90
2019-01-10T07:48:47.247Z,1.00
2019-01-10T07:51:45.484Z,0.95
2019-01-10T07:54:26.683Z,1.15
2019-01-10T07:57:07.526Z,1.60
2019-01-10T07:59:48.373Z,1.22
2019-01-10T08:02:29.051Z,1.55
2019-01-10T08:05:09.734Z,1.20
2019-01-10T08:07:50.529Z,1.10
2019-01-10T08:10:31.245Z,1.52
2019-01-10T08:13:12.013Z,0.90
2019-01-10T08:15:52.736Z,0.90
2019-01-10T08:18:33.471Z,1.37
2019-01-10T08:21:14.406Z,1.00
2019-01-10T08:23:55.089Z,1.20
2019-01-10T08:26:35.895Z,1.20
2019-01-10T08:29:16.495Z,1.00
2019-01-10T08:31:57.211Z,1.02
2019-01-10T08:34:38.056Z,0.88
2019-01-10T08:37:18.620Z,1.32
2019-01-10T08:39:59.367Z,1.27
2019-01-10T08:42:40.130Z,1.67
2019-01-10T08:45:21.702Z,0.90
2019-01-10T08:48:02.806Z,1.00
2019-01-10T08:50:43.270Z,1.40
2019-01-10T08:53:24.035Z,2.70
2019-01-10T08:56:05.222Z,1.20
2019-01-10T08:58:46.190Z,1.35
2019-01-10T09:01:26.624Z,1.30
2019-01-10T09:04:05.801Z,1.32
2019-01-10T09:06:53.864Z,0.90
2019-01-10T09:09:35.132Z,0.95
2019-01-10T09:12:16.141Z,0.80
2019-01-10T09:14:57.436Z,1.07
2019-01-10T09:17:40.199Z,1.00
2019-01-10T09:20:21.340Z,1.00
2019-01-10T09:23:01.835Z,1.40
2019-01-10T09:25:42.578Z,1.45
2019-01-10T09:28:23.289Z,1.35
2019-01-10T09:31:03.679Z,0.90
2019-01-10T09:33:42.743Z,0.82
2019-01-10T09:36:30.798Z,2.08
2019-01-10T09:39:12.143Z,0.90
2019-01-10T09:41:53.353Z,1.55
2019-01-10T09:44:33.949Z,1.10
2019-01-10T09:47:14.630Z,1.40
2019-01-10T09:49:55.130Z,1.10
2019-01-10T09:52:35.937Z,0.85
2019-01-10T09:55:16.642Z,0.90
2019-01-10T09:57:57.092Z,0.55
2019-01-10T10:00:37.955Z,1.15
2019-01-10T10:03:17.178Z,1.10
2019-01-10T10:06:07.950Z,0.78
2019-01-10T10:08:47.617Z,0.80
2019-01-10T10:11:34.045Z,0.85
2019-01-10T10:14:10.897Z,1.05
2019-01-10T10:16:51.667Z,0.70
2019-01-10T10:19:32.726Z,0.72
2019-01-10T10:22:13.543Z,0.85
2019-01-10T10:24:54.079Z,2.37
2019-01-10T10:27:35.293Z,2.17
2019-01-10T10:30:16.529Z,1.25
2019-01-10T10:32:56.077Z,1.72
2019-01-10T10:35:36.458Z,0.40
2019-01-10T10:38:17.097Z,0.50
2019-01-10T10:40:57.609Z,1.60
2019-01-10T10:43:38.899Z,0.80
2019-01-10T10:46:19.579Z,0.98
2019-01-10T10:49:00.004Z,1.02
2019-01-10T10:51:40.641Z,1.25
2019-01-10T10:54:22.005Z,1.80
2019-01-10T10:57:02.728Z,1.20
2019-01-10T10:59:43.476Z,1.20
2019-01-10T11:02:24.140Z,1.42
2019-01-10T11:05:04.988Z,1.00
2019-01-10T11:07:45.465Z,1.15
2019-01-10T11:10:26.419Z,0.90
2019-01-10T11:13:07.586Z,1.65
2019-01-10T11:15:48.181Z,1.35
2019-01-10T11:18:28.520Z,0.70
2019-01-10T11:21:09.482Z,0.90
2019-01-10T11:23:50.183Z,0.80
2019-01-10T11:26:31.509Z,1.05
2019-01-10T11:29:12.439Z,0.78
2019-01-10T11:31:53.085Z,0.70
2019-01-10T11:34:33.908Z,0.50
2019-01-10T11:37:14.492Z,0.70
2019-01-10T11:39:55.090Z,1.32
2019-01-10T11:42:35.902Z,1.05
2019-01-10T11:45:16.711Z,1.00
2019-01-10T11:47:57.475Z,0.82
2019-01-10T11:50:38.295Z,0.55
2019-01-10T11:53:18.723Z,0.70
2019-01-10T11:55:59.868Z,0.70
2019-01-10T11:58:40.577Z,0.62
2019-01-10T12:01:23.944Z,1.02
2019-01-10T12:04:07.846Z,0.70
2019-01-10T12:06:53.738Z,1.35
2019-01-10T12:09:34.925Z,1.07
2019-01-10T12:12:15.676Z,0.82
2019-01-10T12:14:56.790Z,0.88
2019-01-10T12:17:37.411Z,0.47
2019-01-10T12:20:18.028Z,0.50
2019-01-10T12:22:58.875Z,0.80
2019-01-10T12:25:39.708Z,1.42
2019-01-10T12:28:20.327Z,0.88
2019-01-10T12:31:00.713Z,1.37
2019-01-10T12:33:41.760Z,1.70
2019-01-10T12:36:29.718Z,1.00
2019-01-10T12:39:10.234Z,1.05
2019-01-10T12:41:50.580Z,0.90
2019-01-10T12:44:31.534Z,0.90
2019-01-10T12:47:12.595Z,1.05
2019-01-10T12:49:53.189Z,0.88
2019-01-10T12:52:35.222Z,1.32
2019-01-10T12:55:16.262Z,1.05
2019-01-10T12:57:57.532Z,1.15
2019-01-10T13:00:37.903Z,0.95
2019-01-10T13:03:18.612Z,1.82
2019-01-10T13:05:59.409Z,1.10
2019-01-10T13:08:40.635Z,1.50
2019-01-10T13:11:21.494Z,1.30
2019-01-10T13:14:00.729Z,1.30
2019-01-10T13:16:48.975Z,0.72
2019-01-10T13:19:30.025Z,0.70
2019-01-10T13:22:10.786Z,0.50
2019-01-10T13:24:51.901Z,0.70
2019-01-10T13:27:32.709Z,1.10
2019-01-10T13:30:13.305Z,0.90
2019-01-10T13:32:53.698Z,0.80
2019-01-10T13:35:34.356Z,0.85
2019-01-10T13:38:14.835Z,0.98
2019-01-10T13:40:55.486Z,0.95
2019-01-10T13:43:36.713Z,1.30
2019-01-10T13:46:17.245Z,1.20
2019-01-10T13:48:58.354Z,2.05
2019-01-10T13:51:39.097Z,1.65
2019-01-10T13:54:19.558Z,0.93
2019-01-10T13:57:00.823Z,0.93
2019-01-10T13:59:41.551Z,0.80
2019-01-10T14:02:22.291Z,0.85
2019-01-10T14:05:02.809Z,0.80
2019-01-10T14:07:43.785Z,0.78
2019-01-10T14:10:24.169Z,1.17
2019-01-10T14:13:04.976Z,1.50
2019-01-10T14:15:45.999Z,1.10
2019-01-10T14:18:26.699Z,1.00
2019-01-10T14:21:07.557Z,0.80
2019-01-10T14:23:48.322Z,0.90
2019-01-10T14:26:28.855Z,1.10
2019-01-10T14:29:09.952Z,1.30
2019-01-10T14:31:51.199Z,1.50
2019-01-10T14:34:31.770Z,0.80
2019-01-10T14:37:12.549Z,1.07
2019-01-10T14:39:53.217Z,0.85
2019-01-10T14:42:34.014Z,0.85
2019-01-10T14:45:14.796Z,1.12
2019-01-10T14:48:01.827Z,1.10
2019-01-10T14:50:40.978Z,1.00
2019-01-10T14:53:21.604Z,1.35
2019-01-10T14:56:02.095Z,0.90
2019-01-10T14:58:43.018Z,1.05
2019-01-10T15:01:26.010Z,0.80
2019-01-10T15:04:07.324Z,0.90
2019-01-10T15:06:50.339Z,1.15
2019-01-10T15:09:30.931Z,0.72
2019-01-10T15:12:11.839Z,1.67
2019-01-10T15:14:52.863Z,0.70
2019-01-10T15:17:33.340Z,0.50
2019-01-10T15:20:14.421Z,1.07
2019-01-10T15:22:55.736Z,0.55
2019-01-10T15:25:36.975Z,1.60
2019-01-10T15:28:17.736Z,0.65
2019-01-10T15:30:59.006Z,0.72
2019-01-10T15:33:40.404Z,1.32
2019-01-10T15:36:21.293Z,1.22
2019-01-10T15:39:01.986Z,1.30
2019-01-10T15:41:42.406Z,1.60
2019-01-10T15:44:22.796Z,0.53
2019-01-10T15:47:03.520Z,0.80
2019-01-10T15:49:44.126Z,1.30
2019-01-10T15:52:24.570Z,0.70
2019-01-10T15:55:05.379Z,0.93
2019-01-10T15:57:46.159Z,1.00
2019-01-10T16:00:26.692Z,1.10
2019-01-10T16:03:07.998Z,0.60
2019-01-10T16:05:48.431Z,0.90
2019-01-10T16:08:29.119Z,0.80
2019-01-10T16:11:09.630Z,0.88
2019-01-10T16:13:50.674Z,3.22
2019-01-10T16:16:31.378Z,1.52
2019-01-10T16:19:12.345Z,0.90
2019-01-10T16:22:00.440Z,2.60
2019-01-10T16:24:41.511Z,1.00
2019-01-10T16:27:22.401Z,0.80
2019-01-10T16:30:03.383Z,1.02
2019-01-10T16:32:46.179Z,1.30
2019-01-10T16:35:26.745Z,1.67
2019-01-10T16:38:07.620Z,1.80
2019-01-10T16:40:46.676Z,0.72
2019-01-10T16:43:27.894Z,1.10
2019-01-10T16:46:08.482Z,0.90
2019-01-10T16:48:49.161Z,1.10
2019-01-10T16:51:29.770Z,0.93
2019-01-10T16:54:10.489Z,1.70
2019-01-10T16:56:51.171Z,1.55
2019-01-10T16:59:32.146Z,1.20
2019-01-10T17:02:13.219Z,1.95
2019-01-10T17:04:53.935Z,1.10
2019-01-10T17:07:34.641Z,1.65
2019-01-10T17:10:15.762Z,1.32
2019-01-10T17:12:56.245Z,3.60
2019-01-10T17:15:37.083Z,1.70
2019-01-10T17:18:17.995Z,1.92
2019-01-10T17:20:58.590Z,1.10
2019-01-10T17:23:39.275Z,1.35
2019-01-10T17:26:20.204Z,1.25
2019-01-10T17:29:01.268Z,1.32
2019-01-10T17:31:41.945Z,1.77
2019-01-10T17:34:22.495Z,1.07
2019-01-10T17:37:03.535Z,2.67
2019-01-10T17:39:44.060Z,1.47
2019-01-10T17:42:25.192Z,2.42
2019-01-10T17:45:05.706Z,2.12
2019-01-10T17:47:46.293Z,1.92
2019-01-10T17:50:27.100Z,2.10
2019-01-10T17:53:07.981Z,1.45
2019-01-10T17:55:48.495Z,1.50
2019-01-10T17:58:29.056Z,1.75
2019-01-10T18:01:09.739Z,1.10
2019-01-10T18:03:50.721Z,1.35
2019-01-10T18:06:31.321Z,1.17
2019-01-10T18:09:11.705Z,1.07
2019-01-10T18:11:52.470Z,1.50
2019-01-10T18:14:33.804Z,1.00
2019-01-10T18:17:15.659Z,1.17
2019-01-10T18:19:56.484Z,1.20
2019-01-10T18:22:37.246Z,1.72
2019-01-10T18:25:17.978Z,1.98
2019-01-10T18:27:58.524Z,1.50
2019-01-10T18:30:43.371Z,1.50
2019-01-10T18:33:20.378Z,1.75
2019-01-10T18:36:01.036Z,1.67
2019-01-10T18:38:41.505Z,1.95
2019-01-10T18:41:22.410Z,1.85
2019-01-10T18:44:03.710Z,2.45
2019-01-10T18:46:44.923Z,1.80
2019-01-10T18:49:25.420Z,2.12
2019-01-10T18:52:05.908Z,1.98
2019-01-10T18:54:46.890Z,1.90
2019-01-10T18:57:27.865Z,1.75
2019-01-10T19:00:08.637Z,2.22
2019-01-10T19:02:49.542Z,2.20
2019-01-10T19:05:30.752Z,1.95
2019-01-10T19:08:11.588Z,2.87
2019-01-10T19:10:52.339Z,3.10
2019-01-10T19:13:33.163Z,7.97
2019-01-10T19:16:14.470Z,2.05
2019-01-10T19:18:55.055Z,4.15
2019-01-10T19:21:35.774Z,2.55
2019-01-10T19:24:16.543Z,2.95
2019-01-10T19:26:57.394Z,3.10
2019-01-10T19:29:38.442Z,2.05
2019-01-10T19:32:19.206Z,2.25
2019-01-10T19:35:00.230Z,1.92
2019-01-10T19:37:41.143Z,2.37
2019-01-10T19:40:22.027Z,2.50
2019-01-10T19:43:02.646Z,2.02
2019-01-10T19:45:43.617Z,2.55
2019-01-10T19:48:24.472Z,2.17
2019-01-10T19:51:05.303Z,4.20
2019-01-10T19:53:48.445Z,2.40
2019-01-10T19:56:29.477Z,2.22
2019-01-10T19:59:10.302Z,2.15
2019-01-10T20:01:53.631Z,2.45
2019-01-10T20:04:34.554Z,2.00
2019-01-10T20:07:15.798Z,2.42
2019-01-10T20:09:56.851Z,2.45
2019-01-10T20:12:38.116Z,2.50
2019-01-10T20:15:19.450Z,2.62
2019-01-10T20:18:01.473Z,2.60
2019-01-10T20:20:42.972Z,3.12
2019-01-10T20:23:25.899Z,2.60
2019-01-10T20:26:07.189Z,2.10
2019-01-10T20:28:48.022Z,2.50
2019-01-10T20:31:28.930Z,2.65
2019-01-10T20:34:09.938Z,3.50
2019-01-10T20:36:51.166Z,2.10
2019-01-10T20:39:31.929Z,2.58
2019-01-10T20:42:12.853Z,2.90
2019-01-10T20:44:53.996Z,2.40
2019-01-10T20:47:34.898Z,1.60
2019-01-10T20:50:15.657Z,2.77
2019-01-10T20:52:56.588Z,2.33
2019-01-10T20:55:37.307Z,2.27
2019-01-10T20:58:18.579Z,1.50
2019-01-10T21:01:01.415Z,2.90
2019-01-10T21:03:44.398Z,2.00
2019-01-10T21:06:25.250Z,1.52
2019-01-10T21:09:06.051Z,2.15
2019-01-10T21:11:46.774Z,1.52
2019-01-10T21:14:27.647Z,1.30
2019-01-10T21:17:11.214Z,1.80
2019-01-10T21:19:52.798Z,1.77
2019-01-10T21:22:33.310Z,1.47
2019-01-10T21:25:14.122Z,1.60
2019-01-10T21:27:55.368Z,2.00
2019-01-10T21:30:35.831Z,2.45
2019-01-10T21:33:17.092Z,1.60
2019-01-10T21:35:57.907Z,2.37
2019-01-10T21:38:38.338Z,1.95
2019-01-10T21:41:19.271Z,1.70
2019-01-10T21:44:00.539Z,1.50
2019-01-10T21:46:41.332Z,1.80
2019-01-10T21:49:22.720Z,2.00
2019-01-10T21:52:03.431Z,1.72
2019-01-10T21:54:44.502Z,2.90
2019-01-10T21:57:30.331Z,2.35
2019-01-10T22:00:07.435Z,1.60
2019-01-10T22:02:48.498Z,2.52
2019-01-10T22:05:29.058Z,1.65
2019-01-10T22:08:09.744Z,2.00
2019-01-10T22:10:50.663Z,2.58
2019-01-10T22:13:31.275Z,1.90
2019-01-10T22:16:12.082Z,2.20
2019-01-10T22:18:51.263Z,2.05
2019-01-10T22:21:31.757Z,1.55
2019-01-10T22:24:12.788Z,1.50
2019-01-10T22:26:53.483Z,2.00
2019-01-10T22:29:34.236Z,2.05
2019-01-10T22:32:15.158Z,2.20
2019-01-10T22:34:56.094Z,1.87
2019-01-10T22:37:35.260Z,2.52
2019-01-10T22:40:23.742Z,2.40
2019-01-10T22:43:05.117Z,1.80
2019-01-10T22:45:45.760Z,2.30
2019-01-10T22:48:26.642Z,1.50
2019-01-10T22:51:07.365Z,2.30
2019-01-10T22:53:48.022Z,2.83
2019-01-10T22:56:28.554Z,2.37
2019-01-10T22:59:09.145Z,1.82
2019-01-10T23:01:50.676Z,1.90
2019-01-10T23:04:33.252Z,2.87
2019-01-10T23:07:14.186Z,2.80
2019-01-10T23:09:56.434Z,2.60
2019-01-10T23:12:37.558Z,2.62
2019-01-10T23:15:37.245Z,2.85
2019-01-10T23:18:17.725Z,2.90
2019-01-10T23:20:58.436Z,2.77
2019-01-10T23:23:39.147Z,3.00
2019-01-10T23:26:20.090Z,2.55
2019-01-10T23:29:00.857Z,2.00
2019-01-10T23:31:43.043Z,2.00
2019-01-10T23:34:24.311Z,2.67
2019-01-10T23:37:05.124Z,2.35
2019-01-10T23:39:45.998Z,2.17
2019-01-10T23:42:26.762Z,2.40
2019-01-10T23:45:07.949Z,2.22
2019-01-10T23:47:48.607Z,2.55
2019-01-10T23:50:29.289Z,2.20
2019-01-10T23:53:09.762Z,2.40
2019-01-10T23:55:50.645Z,2.62
2019-01-10T23:58:31.229Z,2.50
